sensor_id;sensor_type;location;lat;lon;timestamp;P1;durP1;ratioP1;P2;durP2;ratioP2
75191;SDS011;63771;52.580;9.734;2023-04-19T00:00:37;3.00;;;2.80;;
75191;SDS011;63771;52.580;9.734;2023-04-19T00:03:04;6.57;;;3.08;;
75191;SDS011;63771;52.580;9.734;2023-04-19T00:05:30;3.00;;;2.78;;
75191;SDS011;63771;52.580;9.734;2023-04-19T00:07:55;4.10;;;2.97;;
75191;SDS011;63771;52.580;9.734;2023-04-19T00:10:21;3.63;;;2.92;;
75191;SDS011;63771;52.580;9.734;2023-04-19T00:12:46;4.80;;;2.35;;
75191;SDS011;63771;52.580;9.734;2023-04-19T00:15:11;3.50;;;2.73;;
75191;SDS011;63771;52.580;9.734;2023-04-19T00:17:37;2.90;;;2.70;;
75191;SDS011;63771;52.580;9.734;2023-04-19T00:20:03;2.43;;;2.23;;
75191;SDS011;63771;52.580;9.734;2023-04-19T00:22:32;3.17;;;2.85;;
75191;SDS011;63771;52.580;9.734;2023-04-19T00:24:58;3.78;;;2.35;;
75191;SDS011;63771;52.580;9.734;2023-04-19T00:27:23;3.07;;;2.87;;
75191;SDS011;63771;52.580;9.734;2023-04-19T00:29:48;2.75;;;2.55;;
75191;SDS011;63771;52.580;9.734;2023-04-19T00:32:14;2.85;;;2.40;;
75191;SDS011;63771;52.580;9.734;2023-04-19T00:34:40;2.60;;;2.40;;
75191;SDS011;63771;52.580;9.734;2023-04-19T00:37:06;2.60;;;2.25;;
75191;SDS011;63771;52.580;9.734;2023-04-19T00:39:32;2.63;;;2.45;;
75191;SDS011;63771;52.580;9.734;2023-04-19T00:41:57;2.80;;;2.60;;
75191;SDS011;63771;52.580;9.734;2023-04-19T00:44:23;3.37;;;2.40;;
75191;SDS011;63771;52.580;9.734;2023-04-19T00:46:48;3.20;;;2.60;;
75191;SDS011;63771;52.580;9.734;2023-04-19T00:49:13;7.68;;;2.90;;
75191;SDS011;63771;52.580;9.734;2023-04-19T00:51:40;5.35;;;2.88;;
75191;SDS011;63771;52.580;9.734;2023-04-19T00:54:06;3.35;;;2.92;;
75191;SDS011;63771;52.580;9.734;2023-04-19T00:56:32;2.35;;;2.22;;
75191;SDS011;63771;52.580;9.734;2023-04-19T00:58:59;2.63;;;2.33;;
75191;SDS011;63771;52.580;9.734;2023-04-19T01:01:25;2.97;;;2.78;;
75191;SDS011;63771;52.580;9.734;2023-04-19T01:03:50;6.80;;;3.67;;
75191;SDS011;63771;52.580;9.734;2023-04-19T01:06:15;2.85;;;2.53;;
75191;SDS011;63771;52.580;9.734;2023-04-19T01:08:41;2.80;;;2.60;;
75191;SDS011;63771;52.580;9.734;2023-04-19T01:11:06;3.43;;;2.47;;
75191;SDS011;63771;52.580;9.734;2023-04-19T01:13:32;2.40;;;2.22;;
75191;SDS011;63771;52.580;9.734;2023-04-19T01:15:58;2.70;;;2.50;;
75191;SDS011;63771;52.580;9.734;2023-04-19T01:18:23;3.13;;;2.83;;
75191;SDS011;63771;52.580;9.734;2023-04-19T01:20:50;3.10;;;2.65;;
75191;SDS011;63771;52.580;9.734;2023-04-19T01:23:16;3.13;;;2.55;;
75191;SDS011;63771;52.580;9.734;2023-04-19T01:25:41;2.77;;;2.57;;
75191;SDS011;63771;52.580;9.734;2023-04-19T01:28:06;3.08;;;2.88;;
75191;SDS011;63771;52.580;9.734;2023-04-19T01:30:33;2.73;;;2.33;;
75191;SDS011;63771;52.580;9.734;2023-04-19T01:32:59;2.72;;;2.53;;
75191;SDS011;63771;52.580;9.734;2023-04-19T01:35:24;4.68;;;2.60;;
75191;SDS011;63771;52.580;9.734;2023-04-19T01:37:50;3.10;;;2.65;;
75191;SDS011;63771;52.580;9.734;2023-04-19T01:40:17;3.67;;;2.97;;
75191;SDS011;63771;52.580;9.734;2023-04-19T01:42:42;2.67;;;2.47;;
75191;SDS011;63771;52.580;9.734;2023-04-19T01:45:08;3.77;;;2.43;;
75191;SDS011;63771;52.580;9.734;2023-04-19T01:47:33;3.28;;;2.65;;
75191;SDS011;63771;52.580;9.734;2023-04-19T01:49:58;4.00;;;3.17;;
75191;SDS011;63771;52.580;9.734;2023-04-19T01:52:24;3.97;;;2.73;;
75191;SDS011;63771;52.580;9.734;2023-04-19T01:54:49;2.40;;;2.20;;
75191;SDS011;63771;52.580;9.734;2023-04-19T01:57:14;4.73;;;2.40;;
75191;SDS011;63771;52.580;9.734;2023-04-19T01:59:40;3.25;;;2.70;;
75191;SDS011;63771;52.580;9.734;2023-04-19T02:02:06;4.30;;;2.60;;
75191;SDS011;63771;52.580;9.734;2023-04-19T02:04:32;3.53;;;3.17;;
75191;SDS011;63771;52.580;9.734;2023-04-19T02:06:58;3.45;;;2.45;;
75191;SDS011;63771;52.580;9.734;2023-04-19T02:09:23;3.90;;;2.70;;
75191;SDS011;63771;52.580;9.734;2023-04-19T02:11:49;2.40;;;2.20;;
75191;SDS011;63771;52.580;9.734;2023-04-19T02:14:14;5.43;;;2.73;;
75191;SDS011;63771;52.580;9.734;2023-04-19T02:16:39;4.60;;;2.60;;
75191;SDS011;63771;52.580;9.734;2023-04-19T02:19:05;2.90;;;2.70;;
75191;SDS011;63771;52.580;9.734;2023-04-19T02:21:30;2.70;;;2.50;;
75191;SDS011;63771;52.580;9.734;2023-04-19T02:23:55;2.78;;;2.40;;
75191;SDS011;63771;52.580;9.734;2023-04-19T02:26:21;3.73;;;2.83;;
75191;SDS011;63771;52.580;9.734;2023-04-19T02:28:49;2.85;;;2.50;;
75191;SDS011;63771;52.580;9.734;2023-04-19T02:31:15;2.97;;;2.70;;
75191;SDS011;63771;52.580;9.734;2023-04-19T02:33:40;5.07;;;3.00;;
75191;SDS011;63771;52.580;9.734;2023-04-19T02:36:06;4.67;;;2.63;;
75191;SDS011;63771;52.580;9.734;2023-04-19T02:38:31;3.33;;;3.03;;
75191;SDS011;63771;52.580;9.734;2023-04-19T02:40:57;2.20;;;2.00;;
75191;SDS011;63771;52.580;9.734;2023-04-19T02:43:22;3.17;;;2.87;;
75191;SDS011;63771;52.580;9.734;2023-04-19T02:45:47;4.40;;;2.53;;
75191;SDS011;63771;52.580;9.734;2023-04-19T02:48:12;4.47;;;2.30;;
75191;SDS011;63771;52.580;9.734;2023-04-19T02:50:38;3.23;;;2.60;;
75191;SDS011;63771;52.580;9.734;2023-04-19T02:53:03;2.57;;;2.37;;
75191;SDS011;63771;52.580;9.734;2023-04-19T02:55:28;2.88;;;2.53;;
75191;SDS011;63771;52.580;9.734;2023-04-19T02:57:54;3.28;;;2.72;;
75191;SDS011;63771;52.580;9.734;2023-04-19T03:00:19;2.80;;;2.60;;
75191;SDS011;63771;52.580;9.734;2023-04-19T03:02:44;3.03;;;2.75;;
75191;SDS011;63771;52.580;9.734;2023-04-19T03:05:10;2.60;;;2.50;;
75191;SDS011;63771;52.580;9.734;2023-04-19T03:07:35;2.85;;;2.65;;
75191;SDS011;63771;52.580;9.734;2023-04-19T03:10:01;4.87;;;3.03;;
75191;SDS011;63771;52.580;9.734;2023-04-19T03:12:26;2.53;;;2.33;;
75191;SDS011;63771;52.580;9.734;2023-04-19T03:14:51;2.42;;;2.28;;
75191;SDS011;63771;52.580;9.734;2023-04-19T03:17:17;2.83;;;2.63;;
75191;SDS011;63771;52.580;9.734;2023-04-19T03:19:42;3.73;;;2.73;;
75191;SDS011;63771;52.580;9.734;2023-04-19T03:22:08;10.93;;;2.80;;
75191;SDS011;63771;52.580;9.734;2023-04-19T03:24:33;4.83;;;2.87;;
75191;SDS011;63771;52.580;9.734;2023-04-19T03:26:58;3.87;;;2.87;;
75191;SDS011;63771;52.580;9.734;2023-04-19T03:29:25;3.00;;;2.70;;
75191;SDS011;63771;52.580;9.734;2023-04-19T03:31:50;2.90;;;2.63;;
75191;SDS011;63771;52.580;9.734;2023-04-19T03:34:15;7.60;;;2.73;;
75191;SDS011;63771;52.580;9.734;2023-04-19T03:36:41;2.47;;;2.27;;
75191;SDS011;63771;52.580;9.734;2023-04-19T03:39:06;2.90;;;2.53;;
75191;SDS011;63771;52.580;9.734;2023-04-19T03:41:31;3.63;;;2.60;;
75191;SDS011;63771;52.580;9.734;2023-04-19T03:43:57;2.85;;;2.60;;
75191;SDS011;63771;52.580;9.734;2023-04-19T03:46:23;3.88;;;2.50;;
75191;SDS011;63771;52.580;9.734;2023-04-19T03:48:48;2.90;;;2.35;;
75191;SDS011;63771;52.580;9.734;2023-04-19T03:51:13;3.07;;;1.97;;
75191;SDS011;63771;52.580;9.734;2023-04-19T03:53:40;6.15;;;2.55;;
75191;SDS011;63771;52.580;9.734;2023-04-19T03:56:05;3.38;;;2.40;;
75191;SDS011;63771;52.580;9.734;2023-04-19T03:58:30;4.33;;;2.20;;
75191;SDS011;63771;52.580;9.734;2023-04-19T04:00:57;3.83;;;2.37;;
75191;SDS011;63771;52.580;9.734;2023-04-19T04:03:22;3.40;;;2.83;;
75191;SDS011;63771;52.580;9.734;2023-04-19T04:05:48;3.35;;;2.53;;
75191;SDS011;63771;52.580;9.734;2023-04-19T04:08:13;4.45;;;2.47;;
75191;SDS011;63771;52.580;9.734;2023-04-19T04:10:38;2.37;;;2.20;;
75191;SDS011;63771;52.580;9.734;2023-04-19T04:13:04;4.23;;;2.87;;
75191;SDS011;63771;52.580;9.734;2023-04-19T04:15:29;3.43;;;2.13;;
75191;SDS011;63771;52.580;9.734;2023-04-19T04:17:54;2.30;;;2.10;;
75191;SDS011;63771;52.580;9.734;2023-04-19T04:20:20;3.38;;;2.17;;
75191;SDS011;63771;52.580;9.734;2023-04-19T04:22:45;4.67;;;2.47;;
75191;SDS011;63771;52.580;9.734;2023-04-19T04:25:11;2.83;;;2.63;;
75191;SDS011;63771;52.580;9.734;2023-04-19T04:27:36;3.00;;;2.78;;
75191;SDS011;63771;52.580;9.734;2023-04-19T04:30:03;2.63;;;2.35;;
75191;SDS011;63771;52.580;9.734;2023-04-19T04:32:30;6.32;;;2.83;;
75191;SDS011;63771;52.580;9.734;2023-04-19T04:35:03;3.28;;;2.25;;
75191;SDS011;63771;52.580;9.734;2023-04-19T04:37:32;2.72;;;2.17;;
75191;SDS011;63771;52.580;9.734;2023-04-19T04:39:58;5.05;;;2.90;;
75191;SDS011;63771;52.580;9.734;2023-04-19T04:42:26;2.50;;;2.30;;
75191;SDS011;63771;52.580;9.734;2023-04-19T04:44:52;4.18;;;2.60;;
75191;SDS011;63771;52.580;9.734;2023-04-19T04:47:19;2.83;;;2.72;;
75191;SDS011;63771;52.580;9.734;2023-04-19T04:49:45;3.08;;;2.58;;
75191;SDS011;63771;52.580;9.734;2023-04-19T04:52:10;3.83;;;2.97;;
75191;SDS011;63771;52.580;9.734;2023-04-19T04:54:35;3.00;;;2.80;;
75191;SDS011;63771;52.580;9.734;2023-04-19T04:57:01;3.70;;;2.80;;
75191;SDS011;63771;52.580;9.734;2023-04-19T04:59:26;3.87;;;2.23;;
75191;SDS011;63771;52.580;9.734;2023-04-19T05:01:52;2.88;;;2.67;;
75191;SDS011;63771;52.580;9.734;2023-04-19T05:04:17;4.07;;;2.07;;
75191;SDS011;63771;52.580;9.734;2023-04-19T05:06:43;3.15;;;2.30;;
75191;SDS011;63771;52.580;9.734;2023-04-19T05:09:09;3.53;;;3.00;;
75191;SDS011;63771;52.580;9.734;2023-04-19T05:11:34;4.00;;;2.95;;
75191;SDS011;63771;52.580;9.734;2023-04-19T05:14:00;3.03;;;2.72;;
75191;SDS011;63771;52.580;9.734;2023-04-19T05:16:26;3.08;;;2.75;;
75191;SDS011;63771;52.580;9.734;2023-04-19T05:18:52;5.47;;;2.33;;
75191;SDS011;63771;52.580;9.734;2023-04-19T05:21:17;2.47;;;2.28;;
75191;SDS011;63771;52.580;9.734;2023-04-19T05:23:43;2.42;;;2.20;;
75191;SDS011;63771;52.580;9.734;2023-04-19T05:26:08;2.70;;;2.50;;
75191;SDS011;63771;52.580;9.734;2023-04-19T05:28:36;4.10;;;2.90;;
75191;SDS011;63771;52.580;9.734;2023-04-19T05:31:02;4.05;;;2.72;;
75191;SDS011;63771;52.580;9.734;2023-04-19T05:33:28;3.35;;;2.83;;
75191;SDS011;63771;52.580;9.734;2023-04-19T05:35:53;2.90;;;2.17;;
75191;SDS011;63771;52.580;9.734;2023-04-19T05:38:18;3.40;;;2.63;;
75191;SDS011;63771;52.580;9.734;2023-04-19T05:40:44;3.07;;;2.73;;
75191;SDS011;63771;52.580;9.734;2023-04-19T05:43:09;2.50;;;2.30;;
75191;SDS011;63771;52.580;9.734;2023-04-19T05:45:34;2.60;;;2.40;;
75191;SDS011;63771;52.580;9.734;2023-04-19T05:48:00;2.63;;;2.42;;
75191;SDS011;63771;52.580;9.734;2023-04-19T05:50:25;3.67;;;2.27;;
75191;SDS011;63771;52.580;9.734;2023-04-19T05:52:50;3.20;;;2.90;;
75191;SDS011;63771;52.580;9.734;2023-04-19T05:55:16;2.57;;;2.27;;
75191;SDS011;63771;52.580;9.734;2023-04-19T05:57:42;8.15;;;4.75;;
75191;SDS011;63771;52.580;9.734;2023-04-19T06:00:07;10.23;;;5.60;;
75191;SDS011;63771;52.580;9.734;2023-04-19T06:02:33;7.78;;;5.10;;
75191;SDS011;63771;52.580;9.734;2023-04-19T06:04:59;5.38;;;3.17;;
75191;SDS011;63771;52.580;9.734;2023-04-19T06:07:27;7.45;;;4.20;;
75191;SDS011;63771;52.580;9.734;2023-04-19T06:09:53;9.93;;;5.50;;
75191;SDS011;63771;52.580;9.734;2023-04-19T06:12:18;3.70;;;2.83;;
75191;SDS011;63771;52.580;9.734;2023-04-19T06:14:43;2.03;;;1.93;;
75191;SDS011;63771;52.580;9.734;2023-04-19T06:17:09;4.43;;;2.53;;
75191;SDS011;63771;52.580;9.734;2023-04-19T06:19:34;1.70;;;1.60;;
75191;SDS011;63771;52.580;9.734;2023-04-19T06:22:00;1.90;;;1.80;;
75191;SDS011;63771;52.580;9.734;2023-04-19T06:24:26;3.20;;;2.40;;
75191;SDS011;63771;52.580;9.734;2023-04-19T06:26:51;3.03;;;2.50;;
75191;SDS011;63771;52.580;9.734;2023-04-19T06:29:17;4.83;;;2.40;;
75191;SDS011;63771;52.580;9.734;2023-04-19T06:34:10;2.13;;;2.03;;
75191;SDS011;63771;52.580;9.734;2023-04-19T06:36:36;1.90;;;1.77;;
75191;SDS011;63771;52.580;9.734;2023-04-19T06:39:01;2.30;;;2.08;;
75191;SDS011;63771;52.580;9.734;2023-04-19T06:41:27;2.85;;;2.00;;
75191;SDS011;63771;52.580;9.734;2023-04-19T06:43:52;2.03;;;1.83;;
75191;SDS011;63771;52.580;9.734;2023-04-19T06:46:18;1.83;;;1.70;;
75191;SDS011;63771;52.580;9.734;2023-04-19T06:48:43;1.90;;;1.70;;
75191;SDS011;63771;52.580;9.734;2023-04-19T06:51:08;1.93;;;1.83;;
75191;SDS011;63771;52.580;9.734;2023-04-19T06:53:34;2.30;;;2.10;;
75191;SDS011;63771;52.580;9.734;2023-04-19T06:56:00;2.10;;;1.95;;
75191;SDS011;63771;52.580;9.734;2023-04-19T06:58:26;1.88;;;1.77;;
75191;SDS011;63771;52.580;9.734;2023-04-19T07:00:52;2.25;;;1.48;;
75191;SDS011;63771;52.580;9.734;2023-04-19T07:03:18;1.75;;;1.65;;
75191;SDS011;63771;52.580;9.734;2023-04-19T07:05:43;4.87;;;2.67;;
75191;SDS011;63771;52.580;9.734;2023-04-19T07:08:08;4.13;;;1.60;;
75191;SDS011;63771;52.580;9.734;2023-04-19T07:10:34;2.17;;;2.07;;
75191;SDS011;63771;52.580;9.734;2023-04-19T07:12:59;2.67;;;2.47;;
75191;SDS011;63771;52.580;9.734;2023-04-19T07:15:24;6.27;;;3.03;;
75191;SDS011;63771;52.580;9.734;2023-04-19T07:17:50;2.97;;;2.30;;
75191;SDS011;63771;52.580;9.734;2023-04-19T07:20:15;2.95;;;2.15;;
75191;SDS011;63771;52.580;9.734;2023-04-19T07:22:40;1.85;;;1.75;;
75191;SDS011;63771;52.580;9.734;2023-04-19T07:25:06;1.83;;;1.73;;
75191;SDS011;63771;52.580;9.734;2023-04-19T07:27:31;1.73;;;1.63;;
75191;SDS011;63771;52.580;9.734;2023-04-19T07:29:57;2.20;;;1.70;;
75191;SDS011;63771;52.580;9.734;2023-04-19T07:32:22;2.43;;;1.60;;
75191;SDS011;63771;52.580;9.734;2023-04-19T07:34:47;1.50;;;1.40;;
75191;SDS011;63771;52.580;9.734;2023-04-19T07:37:13;2.60;;;1.80;;
75191;SDS011;63771;52.580;9.734;2023-04-19T07:39:38;3.80;;;2.00;;
75191;SDS011;63771;52.580;9.734;2023-04-19T07:42:04;2.80;;;1.83;;
75191;SDS011;63771;52.580;9.734;2023-04-19T07:44:29;1.58;;;1.48;;
75191;SDS011;63771;52.580;9.734;2023-04-19T07:46:54;1.48;;;1.38;;
75191;SDS011;63771;52.580;9.734;2023-04-19T07:49:20;2.13;;;1.60;;
75191;SDS011;63771;52.580;9.734;2023-04-19T07:51:45;1.70;;;1.60;;
75191;SDS011;63771;52.580;9.734;2023-04-19T07:54:10;2.07;;;1.80;;
75191;SDS011;63771;52.580;9.734;2023-04-19T07:56:36;4.90;;;1.83;;
75191;SDS011;63771;52.580;9.734;2023-04-19T07:59:02;2.30;;;1.80;;
75191;SDS011;63771;52.580;9.734;2023-04-19T08:01:28;1.35;;;1.35;;
75191;SDS011;63771;52.580;9.734;2023-04-19T08:03:54;4.45;;;1.90;;
75191;SDS011;63771;52.580;9.734;2023-04-19T08:06:19;2.17;;;1.40;;
75191;SDS011;63771;52.580;9.734;2023-04-19T08:08:45;2.33;;;1.50;;
75191;SDS011;63771;52.580;9.734;2023-04-19T08:11:11;1.70;;;1.60;;
75191;SDS011;63771;52.580;9.734;2023-04-19T08:13:36;2.17;;;1.60;;
75191;SDS011;63771;52.580;9.734;2023-04-19T08:16:02;3.40;;;1.83;;
75191;SDS011;63771;52.580;9.734;2023-04-19T08:18:27;2.43;;;1.70;;
75191;SDS011;63771;52.580;9.734;2023-04-19T08:20:53;3.90;;;1.63;;
75191;SDS011;63771;52.580;9.734;2023-04-19T08:23:18;1.57;;;1.47;;
75191;SDS011;63771;52.580;9.734;2023-04-19T08:25:43;1.80;;;1.70;;
75191;SDS011;63771;52.580;9.734;2023-04-19T08:28:09;3.13;;;1.80;;
75191;SDS011;63771;52.580;9.734;2023-04-19T08:30:35;1.52;;;1.50;;
75191;SDS011;63771;52.580;9.734;2023-04-19T08:33:00;2.03;;;1.90;;
75191;SDS011;63771;52.580;9.734;2023-04-19T08:35:26;2.63;;;1.83;;
75191;SDS011;63771;52.580;9.734;2023-04-19T08:37:51;1.90;;;1.60;;
75191;SDS011;63771;52.580;9.734;2023-04-19T08:40:17;1.90;;;1.80;;
75191;SDS011;63771;52.580;9.734;2023-04-19T08:42:42;2.10;;;2.00;;
75191;SDS011;63771;52.580;9.734;2023-04-19T08:45:08;2.67;;;1.58;;
75191;SDS011;63771;52.580;9.734;2023-04-19T08:47:37;2.90;;;1.65;;
75191;SDS011;63771;52.580;9.734;2023-04-19T08:50:05;1.83;;;1.73;;
75191;SDS011;63771;52.580;9.734;2023-04-19T08:52:35;1.63;;;1.52;;
75191;SDS011;63771;52.580;9.734;2023-04-19T08:55:05;1.70;;;1.65;;
75191;SDS011;63771;52.580;9.734;2023-04-19T08:57:31;1.38;;;1.33;;
75191;SDS011;63771;52.580;9.734;2023-04-19T08:59:58;2.17;;;1.40;;
75191;SDS011;63771;52.580;9.734;2023-04-19T09:02:24;1.70;;;1.60;;
75191;SDS011;63771;52.580;9.734;2023-04-19T09:04:50;2.13;;;1.90;;
75191;SDS011;63771;52.580;9.734;2023-04-19T09:07:25;2.25;;;2.05;;
75191;SDS011;63771;52.580;9.734;2023-04-19T09:10:07;2.08;;;1.98;;
75191;SDS011;63771;52.580;9.734;2023-04-19T09:12:35;2.22;;;2.03;;
75191;SDS011;63771;52.580;9.734;2023-04-19T09:15:02;3.17;;;1.80;;
75191;SDS011;63771;52.580;9.734;2023-04-19T09:17:31;2.55;;;1.88;;
75191;SDS011;63771;52.580;9.734;2023-04-19T09:19:56;3.08;;;1.83;;
75191;SDS011;63771;52.580;9.734;2023-04-19T09:22:22;1.65;;;1.55;;
75191;SDS011;63771;52.580;9.734;2023-04-19T09:24:48;2.53;;;1.85;;
75191;SDS011;63771;52.580;9.734;2023-04-19T09:27:15;1.70;;;1.60;;
75191;SDS011;63771;52.580;9.734;2023-04-19T09:29:52;1.92;;;1.83;;
75191;SDS011;63771;52.580;9.734;2023-04-19T09:32:19;2.28;;;2.03;;
75191;SDS011;63771;52.580;9.734;2023-04-19T09:34:51;1.98;;;1.63;;
75191;SDS011;63771;52.580;9.734;2023-04-19T09:37:18;1.85;;;1.73;;
75191;SDS011;63771;52.580;9.734;2023-04-19T09:39:44;1.80;;;1.73;;
75191;SDS011;63771;52.580;9.734;2023-04-19T09:42:09;5.13;;;1.90;;
75191;SDS011;63771;52.580;9.734;2023-04-19T09:44:35;4.25;;;1.98;;
75191;SDS011;63771;52.580;9.734;2023-04-19T09:47:00;2.10;;;2.00;;
75191;SDS011;63771;52.580;9.734;2023-04-19T09:49:25;3.63;;;1.80;;
75191;SDS011;63771;52.580;9.734;2023-04-19T09:51:54;1.80;;;1.70;;
75191;SDS011;63771;52.580;9.734;2023-04-19T09:54:24;2.17;;;2.08;;
75191;SDS011;63771;52.580;9.734;2023-04-19T09:56:53;1.83;;;1.73;;
75191;SDS011;63771;52.580;9.734;2023-04-19T09:59:19;2.13;;;2.03;;
75191;SDS011;63771;52.580;9.734;2023-04-19T10:01:45;7.00;;;2.03;;
75191;SDS011;63771;52.580;9.734;2023-04-19T10:04:12;1.80;;;1.27;;
75191;SDS011;63771;52.580;9.734;2023-04-19T10:09:12;1.70;;;1.67;;
75191;SDS011;63771;52.580;9.734;2023-04-19T10:11:37;6.72;;;1.95;;
75191;SDS011;63771;52.580;9.734;2023-04-19T10:14:04;1.73;;;1.63;;
75191;SDS011;63771;52.580;9.734;2023-04-19T10:16:34;1.65;;;1.55;;
75191;SDS011;63771;52.580;9.734;2023-04-19T10:19:04;2.10;;;2.00;;
75191;SDS011;63771;52.580;9.734;2023-04-19T10:21:32;1.90;;;1.58;;
75191;SDS011;63771;52.580;9.734;2023-04-19T10:23:58;1.45;;;1.33;;
75191;SDS011;63771;52.580;9.734;2023-04-19T10:26:24;1.60;;;1.50;;
75191;SDS011;63771;52.580;9.734;2023-04-19T10:28:50;1.35;;;1.33;;
75191;SDS011;63771;52.580;9.734;2023-04-19T10:31:18;2.72;;;1.75;;
75191;SDS011;63771;52.580;9.734;2023-04-19T10:33:48;2.33;;;2.13;;
75191;SDS011;63771;52.580;9.734;2023-04-19T10:36:15;1.52;;;1.42;;
75191;SDS011;63771;52.580;9.734;2023-04-19T10:38:43;1.52;;;1.52;;
75191;SDS011;63771;52.580;9.734;2023-04-19T10:41:13;1.73;;;1.60;;
75191;SDS011;63771;52.580;9.734;2023-04-19T10:43:43;1.80;;;1.70;;
75191;SDS011;63771;52.580;9.734;2023-04-19T10:48:48;5.88;;;1.75;;
75191;SDS011;63771;52.580;9.734;2023-04-19T10:51:17;2.22;;;1.63;;
75191;SDS011;63771;52.580;9.734;2023-04-19T10:53:51;1.85;;;1.73;;
75191;SDS011;63771;52.580;9.734;2023-04-19T10:56:18;2.45;;;1.70;;
75191;SDS011;63771;52.580;9.734;2023-04-19T10:59:11;2.58;;;1.70;;
75191;SDS011;63771;52.580;9.734;2023-04-19T11:01:45;1.60;;;1.50;;
75191;SDS011;63771;52.580;9.734;2023-04-19T11:04:13;2.13;;;1.33;;
75191;SDS011;63771;52.580;9.734;2023-04-19T11:07:12;1.83;;;1.73;;
75191;SDS011;63771;52.580;9.734;2023-04-19T11:09:32;1.67;;;1.58;;
75191;SDS011;63771;52.580;9.734;2023-04-19T11:12:03;1.73;;;1.63;;
75191;SDS011;63771;52.580;9.734;2023-04-19T11:14:36;2.05;;;1.90;;
75191;SDS011;63771;52.580;9.734;2023-04-19T11:19:55;2.95;;;1.80;;
75191;SDS011;63771;52.580;9.734;2023-04-19T11:22:31;5.63;;;2.03;;
75191;SDS011;63771;52.580;9.734;2023-04-19T11:25:07;1.88;;;1.63;;
75191;SDS011;63771;52.580;9.734;2023-04-19T11:27:44;2.85;;;1.75;;
75191;SDS011;63771;52.580;9.734;2023-04-19T11:30:11;2.33;;;2.00;;
75191;SDS011;63771;52.580;9.734;2023-04-19T11:32:45;2.20;;;2.03;;
75191;SDS011;63771;52.580;9.734;2023-04-19T11:35:12;2.17;;;1.98;;
75191;SDS011;63771;52.580;9.734;2023-04-19T11:37:38;5.63;;;2.25;;
75191;SDS011;63771;52.580;9.734;2023-04-19T11:40:04;3.25;;;1.88;;
75191;SDS011;63771;52.580;9.734;2023-04-19T11:42:31;2.20;;;2.00;;
75191;SDS011;63771;52.580;9.734;2023-04-19T11:44:57;6.90;;;2.45;;
75191;SDS011;63771;52.580;9.734;2023-04-19T11:47:23;2.30;;;2.10;;
75191;SDS011;63771;52.580;9.734;2023-04-19T11:49:50;5.88;;;2.55;;
75191;SDS011;63771;52.580;9.734;2023-04-19T11:52:19;3.80;;;2.25;;
75191;SDS011;63771;52.580;9.734;2023-04-19T11:54:52;2.80;;;2.22;;
75191;SDS011;63771;52.580;9.734;2023-04-19T11:57:29;4.10;;;2.00;;
75191;SDS011;63771;52.580;9.734;2023-04-19T12:00:07;2.60;;;2.03;;
75191;SDS011;63771;52.580;9.734;2023-04-19T12:02:36;3.20;;;2.00;;
75191;SDS011;63771;52.580;9.734;2023-04-19T12:05:07;3.22;;;2.70;;
75191;SDS011;63771;52.580;9.734;2023-04-19T12:07:33;2.92;;;2.42;;
75191;SDS011;63771;52.580;9.734;2023-04-19T12:10:06;2.58;;;2.33;;
75191;SDS011;63771;52.580;9.734;2023-04-19T12:12:36;4.40;;;2.60;;
75191;SDS011;63771;52.580;9.734;2023-04-19T12:15:01;2.22;;;2.13;;
75191;SDS011;63771;52.580;9.734;2023-04-19T12:17:27;2.42;;;2.25;;
75191;SDS011;63771;52.580;9.734;2023-04-19T12:19:52;2.37;;;2.23;;
75191;SDS011;63771;52.580;9.734;2023-04-19T12:22:18;2.47;;;2.27;;
75191;SDS011;63771;52.580;9.734;2023-04-19T12:24:45;4.22;;;2.50;;
75191;SDS011;63771;52.580;9.734;2023-04-19T12:27:10;4.75;;;2.45;;
75191;SDS011;63771;52.580;9.734;2023-04-19T12:29:37;2.97;;;2.22;;
75191;SDS011;63771;52.580;9.734;2023-04-19T12:32:02;2.95;;;2.38;;
75191;SDS011;63771;52.580;9.734;2023-04-19T12:34:29;5.45;;;2.92;;
75191;SDS011;63771;52.580;9.734;2023-04-19T12:36:55;3.28;;;2.30;;
75191;SDS011;63771;52.580;9.734;2023-04-19T12:39:20;2.78;;;2.58;;
75191;SDS011;63771;52.580;9.734;2023-04-19T12:41:46;2.33;;;2.17;;
75191;SDS011;63771;52.580;9.734;2023-04-19T12:44:12;2.72;;;2.20;;
75191;SDS011;63771;52.580;9.734;2023-04-19T12:46:38;3.00;;;2.70;;
75191;SDS011;63771;52.580;9.734;2023-04-19T12:49:04;3.70;;;2.13;;
75191;SDS011;63771;52.580;9.734;2023-04-19T12:51:29;2.47;;;2.27;;
75191;SDS011;63771;52.580;9.734;2023-04-19T12:53:55;3.08;;;2.72;;
75191;SDS011;63771;52.580;9.734;2023-04-19T12:56:21;2.20;;;2.10;;
75191;SDS011;63771;52.580;9.734;2023-04-19T12:58:46;2.50;;;2.27;;
75191;SDS011;63771;52.580;9.734;2023-04-19T13:01:11;2.73;;;2.47;;
75191;SDS011;63771;52.580;9.734;2023-04-19T13:03:36;2.50;;;2.30;;
75191;SDS011;63771;52.580;9.734;2023-04-19T13:06:02;2.58;;;2.33;;
75191;SDS011;63771;52.580;9.734;2023-04-19T13:08:28;2.53;;;1.83;;
75191;SDS011;63771;52.580;9.734;2023-04-19T13:10:56;5.70;;;2.87;;
75191;SDS011;63771;52.580;9.734;2023-04-19T13:13:25;2.47;;;2.25;;
75191;SDS011;63771;52.580;9.734;2023-04-19T13:15:50;3.10;;;2.80;;
75191;SDS011;63771;52.580;9.734;2023-04-19T13:18:16;4.43;;;2.97;;
75191;SDS011;63771;52.580;9.734;2023-04-19T13:20:41;4.60;;;2.28;;
75191;SDS011;63771;52.580;9.734;2023-04-19T13:23:07;2.17;;;1.97;;
75191;SDS011;63771;52.580;9.734;2023-04-19T13:25:32;6.20;;;2.90;;
75191;SDS011;63771;52.580;9.734;2023-04-19T13:27:57;3.90;;;2.50;;
75191;SDS011;63771;52.580;9.734;2023-04-19T13:30:22;2.87;;;2.67;;
75191;SDS011;63771;52.580;9.734;2023-04-19T13:32:48;3.73;;;2.47;;
75191;SDS011;63771;52.580;9.734;2023-04-19T13:35:13;2.97;;;2.70;;
75191;SDS011;63771;52.580;9.734;2023-04-19T13:37:39;3.50;;;2.83;;
75191;SDS011;63771;52.580;9.734;2023-04-19T13:40:06;4.10;;;2.67;;
75191;SDS011;63771;52.580;9.734;2023-04-19T13:42:31;2.90;;;2.60;;
75191;SDS011;63771;52.580;9.734;2023-04-19T13:44:57;3.70;;;2.83;;
75191;SDS011;63771;52.580;9.734;2023-04-19T13:47:22;3.13;;;2.93;;
75191;SDS011;63771;52.580;9.734;2023-04-19T13:49:47;3.33;;;3.03;;
75191;SDS011;63771;52.580;9.734;2023-04-19T13:52:16;4.60;;;2.60;;
75191;SDS011;63771;52.580;9.734;2023-04-19T13:54:44;4.32;;;2.88;;
75191;SDS011;63771;52.580;9.734;2023-04-19T13:57:10;3.47;;;3.13;;
75191;SDS011;63771;52.580;9.734;2023-04-19T13:59:36;6.13;;;3.38;;
75191;SDS011;63771;52.580;9.734;2023-04-19T14:02:02;3.10;;;2.90;;
75191;SDS011;63771;52.580;9.734;2023-04-19T14:04:27;3.47;;;2.38;;
75191;SDS011;63771;52.580;9.734;2023-04-19T14:06:53;3.07;;;2.30;;
75191;SDS011;63771;52.580;9.734;2023-04-19T14:09:18;2.63;;;2.43;;
75191;SDS011;63771;52.580;9.734;2023-04-19T14:11:43;3.20;;;2.80;;
75191;SDS011;63771;52.580;9.734;2023-04-19T14:14:09;3.33;;;3.03;;
75191;SDS011;63771;52.580;9.734;2023-04-19T14:16:34;2.67;;;2.40;;
75191;SDS011;63771;52.580;9.734;2023-04-19T14:18:59;2.58;;;2.33;;
75191;SDS011;63771;52.580;9.734;2023-04-19T14:21:25;2.70;;;2.50;;
75191;SDS011;63771;52.580;9.734;2023-04-19T14:23:51;3.13;;;2.83;;
75191;SDS011;63771;52.580;9.734;2023-04-19T14:26:16;4.03;;;2.47;;
75191;SDS011;63771;52.580;9.734;2023-04-19T14:28:42;2.67;;;2.30;;
75191;SDS011;63771;52.580;9.734;2023-04-19T14:31:07;3.73;;;2.33;;
75191;SDS011;63771;52.580;9.734;2023-04-19T14:33:32;2.90;;;2.70;;
75191;SDS011;63771;52.580;9.734;2023-04-19T14:35:58;2.30;;;1.83;;
75191;SDS011;63771;52.580;9.734;2023-04-19T14:38:23;3.87;;;2.37;;
75191;SDS011;63771;52.580;9.734;2023-04-19T14:40:48;2.55;;;2.15;;
75191;SDS011;63771;52.580;9.734;2023-04-19T14:43:14;1.83;;;1.65;;
75191;SDS011;63771;52.580;9.734;2023-04-19T14:45:42;2.80;;;2.60;;
75191;SDS011;63771;52.580;9.734;2023-04-19T14:48:07;2.40;;;2.20;;
75191;SDS011;63771;52.580;9.734;2023-04-19T14:50:33;2.40;;;2.13;;
75191;SDS011;63771;52.580;9.734;2023-04-19T14:52:58;5.00;;;2.13;;